Time;durP1;ratioP1;P1;durP2;ratioP2;P2;SDS_P1;SDS_P2;PMS_P1;PMS_P2;Temp;Humidity;BMP_temperature;BMP_pressure;BME280_temperature;BME280_humidity;BME280_pressure;Samples;Min_cycle;Max_cycle;Signal;HPM_P1;HPM_P2
2021/01/19 00:01:18;;;;;;;20.15;7.70;;;7.00;95.30;;;6.64;82.64;100661.41;4992046;28;20053;-89
2021/01/19 00:03:45;;;;;;;22.80;8.13;;;7.00;95.40;;;6.65;82.73;100656.84;4991880;28;20057;-92
2021/01/19 00:06:16;;;;;;;22.23;7.72;;;7.00;95.40;;;6.70;82.28;100648.25;4990556;28;20978;-91
2021/01/19 00:08:42;;;;;;;24.55;7.72;;;7.00;95.40;;;6.72;82.20;100655.22;4991997;28;20050;-88
2021/01/19 00:11:09;;;;;;;14.88;7.00;;;7.00;95.30;;;6.72;82.32;100648.94;4992135;28;20491;-91
2021/01/19 00:13:36;;;;;;;18.63;7.38;;;7.00;95.30;;;6.64;82.50;100644.31;4992102;28;20070;-91
2021/01/19 00:16:03;;;;;;;16.88;7.05;;;7.00;95.20;;;6.66;82.38;100642.31;4992078;28;20096;-90
2021/01/19 00:18:30;;;;;;;15.10;7.18;;;7.00;95.30;;;6.67;82.40;100637.78;4991898;28;20053;-91
2021/01/19 00:20:59;;;;;;;17.05;7.30;;;7.00;95.20;;;6.71;81.98;100633.75;4991924;28;20121;-91
2021/01/19 00:23:27;;;;;;;16.15;7.50;;;6.90;95.30;;;6.72;81.76;100633.59;4991594;28;20042;-91
2021/01/19 00:25:54;;;;;;;19.10;7.13;;;7.00;95.20;;;6.63;81.62;100632.66;4991349;28;20124;-91
2021/01/19 00:28:21;;;;;;;18.75;8.13;;;7.00;95.20;;;6.63;81.90;100632.66;4991509;28;20046;-92
2021/01/19 00:30:47;;;;;;;14.68;7.38;;;7.00;95.00;;;6.64;82.05;100628.97;4991145;28;20547;-89
2021/01/19 00:33:14;;;;;;;16.77;6.82;;;7.00;95.00;;;6.62;81.78;100622.84;4991222;28;20081;-91
2021/01/19 00:35:41;;;;;;;22.77;7.18;;;7.00;94.80;;;6.64;81.54;100617.28;4991315;28;20046;-90
2021/01/19 00:38:09;;;;;;;17.95;7.00;;;7.00;94.80;;;6.62;82.01;100614.72;4991401;28;20049;-89
2021/01/19 00:40:37;;;;;;;16.20;7.00;;;7.00;94.50;;;6.58;81.12;100613.34;4990109;28;20105;-91
2021/01/19 00:43:04;;;;;;;26.17;7.18;;;7.00;94.60;;;6.65;81.44;100610.88;4991500;28;20810;-89
2021/01/19 00:45:31;;;;;;;18.33;6.68;;;7.00;94.50;;;6.62;81.29;100603.06;4991572;28;20034;-91
2021/01/19 00:47:57;;;;;;;20.17;7.10;;;6.90;94.60;;;6.64;81.37;100606.47;4991245;28;20065;-91
2021/01/19 00:50:24;;;;;;;21.08;6.75;;;7.00;94.50;;;6.67;80.90;100594.50;4989787;28;20093;-90
2021/01/19 00:52:52;;;;;;;26.52;7.07;;;6.90;94.30;;;6.63;81.19;100594.81;4986775;28;20053;-91
2021/01/19 00:55:19;;;;;;;15.32;5.97;;;6.90;94.50;;;6.68;81.51;100596.19;4973025;28;20081;-91
2021/01/19 00:57:52;;;;;;;21.13;6.55;;;6.90;94.40;;;6.69;80.65;100592.47;4969634;28;20488;-90
2021/01/19 01:00:24;;;;;;;16.00;6.57;;;6.90;94.60;;;6.74;80.70;100587.44;4968640;28;20070;-91
2021/01/19 01:02:53;;;;;;;17.40;6.13;;;6.90;94.40;;;6.68;80.25;100574.53;4969451;28;20069;-90
2021/01/19 01:05:20;;;;;;;15.82;5.68;;;6.90;94.40;;;6.67;80.74;100578.28;4971467;28;20051;-91
2021/01/19 01:07:47;;;;;;;13.25;5.80;;;6.90;94.30;;;6.67;80.82;100559.34;4970974;28;20043;-90
2021/01/19 01:10:16;;;;;;;19.70;6.72;;;6.90;94.10;;;6.63;81.02;100575.03;4970280;28;20047;-91
2021/01/19 01:12:44;;;;;;;19.00;5.43;;;6.90;93.90;;;6.66;80.89;100574.69;4970894;28;20358;-89
2021/01/19 01:15:20;;;;;;;15.25;5.13;;;6.90;94.10;;;6.68;80.60;100569.13;4971139;28;20505;-91
2021/01/19 01:17:47;;;;;;;19.23;5.40;;;6.90;94.00;;;6.69;80.30;100565.44;4971071;28;20035;-92
2021/01/19 01:20:14;;;;;;;17.17;5.22;;;6.90;93.80;;;6.68;80.56;100561.88;4971270;28;20051;-90
2021/01/19 01:22:43;;;;;;;14.50;5.53;;;6.90;93.70;;;6.64;80.12;100557.78;4971138;28;20794;-90
2021/01/19 01:25:11;;;;;;;17.45;4.85;;;6.90;93.50;;;6.63;80.42;100556.94;4971072;28;20492;-90
2021/01/19 01:27:39;;;;;;;14.20;5.22;;;6.90;93.30;;;6.64;79.68;100546.97;4969720;28;20051;-89
2021/01/19 01:30:09;;;;;;;19.05;4.80;;;6.90;92.90;;;6.65;79.68;100548.69;4970965;28;20051;-90
2021/01/19 01:32:40;;;;;;;11.73;3.78;;;6.90;92.90;;;6.68;79.53;100536.69;4971272;28;20047;-90
2021/01/19 01:35:11;;;;;;;16.20;4.63;;;6.90;92.90;;;6.70;79.58;100534.66;4971147;28;20125;-91
2021/01/19 01:37:45;;;;;;;12.73;4.38;;;6.90;92.70;;;6.65;79.13;100533.28;4969351;28;20055;-90
2021/01/19 01:40:16;;;;;;;11.80;4.13;;;6.90;92.60;;;6.62;79.35;100533.59;4970819;28;20053;-88
2021/01/19 01:42:43;;;;;;;;;;;6.90;92.70;;;6.65;79.32;100533.28;4971150;28;20046;-89
2021/01/19 01:45:12;;;;;;;14.38;4.50;;;6.90;92.80;;;6.66;79.37;100526.03;4970317;28;19957;-90
2021/01/19 01:47:40;;;;;;;16.92;4.78;;;6.90;92.70;;;6.64;79.19;100523.50;4970176;28;20098;-90
2021/01/19 01:50:10;;;;;;;12.48;4.38;;;6.90;92.80;;;6.64;78.64;100531.63;4969567;28;20082;-91
2021/01/19 01:52:38;;;;;;;16.23;4.28;;;6.90;92.40;;;6.59;79.07;100517.72;4970382;28;20105;-90
2021/01/19 01:55:07;;;;;;;13.80;4.60;;;6.90;91.90;;;6.58;78.17;100518.69;4970256;28;20386;-89
2021/01/19 01:57:34;;;;;;;13.68;4.60;;;6.90;91.90;;;6.56;78.66;100507.19;4970534;28;20070;-89
2021/01/19 02:00:04;;;;;;;9.85;3.97;;;6.90;91.70;;;6.62;78.20;100506.56;4970500;28;20495;-91
2021/01/19 02:02:31;;;;;;;16.70;3.80;;;6.90;91.70;;;6.57;78.08;100505.38;4969238;28;20043;-90
2021/01/19 02:04:59;;;;;;;11.82;3.80;;;6.90;91.50;;;6.56;78.27;100490.97;4970233;28;20170;-90
2021/01/19 02:07:37;;;;;;;13.75;3.70;;;6.90;91.30;;;6.61;78.33;100487.81;4970364;28;20051;-92
2021/01/19 02:10:15;;;;;;;30.80;3.65;;;6.90;91.30;;;6.53;77.67;100485.91;4970346;28;20059;-89
2021/01/19 02:12:52;;;;;;;11.25;3.47;;;6.90;90.80;;;6.51;78.21;100471.69;4970150;28;20105;-90
2021/01/19 02:15:32;;;;;;;11.85;3.05;;;6.90;90.70;;;6.54;77.79;100471.38;4969332;28;20101;-90
2021/01/19 02:18:14;;;;;;;8.77;3.10;;;6.90;90.70;;;6.56;77.09;100466.66;4970237;28;20121;-92
2021/01/19 02:21:29;;;;;;;10.90;2.85;;;6.90;90.40;;;6.59;76.78;100468.19;4969879;28;20047;-91
2021/01/19 02:24:03;;;;;;;9.00;2.60;;;7.00;89.90;;;6.53;76.05;100453.47;4968871;28;20113;-89
2021/01/19 02:27:13;;;;;;;13.48;2.97;;;6.90;89.30;;;6.51;76.73;100444.66;4969919;28;20161;-91
2021/01/19 02:30:11;;;;;;;6.70;2.45;;;6.90;89.60;;;6.57;77.16;100438.63;4970059;28;20062;-89
2021/01/19 02:32:53;;;;;;;10.85;2.63;;;6.90;89.50;;;6.64;76.56;100434.25;4970526;28;20043;-91
2021/01/19 02:35:25;;;;;;;10.95;2.85;;;6.90;89.60;;;6.65;76.39;100414.31;4970071;28;20146;-91
2021/01/19 02:38:02;;;;;;;11.93;2.88;;;6.90;89.70;;;6.67;77.33;100410.59;4969721;28;20047;-87
2021/01/19 02:40:30;;;;;;;15.30;2.80;;;6.90;90.00;;;6.56;75.53;100404.47;4969842;28;20053;-89
2021/01/19 02:43:10;;;;;;;12.93;2.60;;;6.90;89.50;;;6.50;76.57;100404.25;4968294;28;20050;-88
2021/01/19 02:45:37;;;;;;;10.25;2.58;;;6.90;89.20;;;6.54;76.30;100401.06;4969554;28;20042;-90
2021/01/19 02:48:06;;;;;;;6.93;2.13;;;6.90;89.60;;;6.49;75.66;100398.00;4969718;28;20444;-90
2021/01/19 02:50:33;;;;;;;10.43;2.35;;;6.90;89.50;;;6.54;76.93;100384.00;4969589;28;20050;-89
2021/01/19 02:53:00;;;;;;;9.25;2.55;;;6.80;89.40;;;6.56;76.38;100369.31;4969690;28;20065;-90
2021/01/19 02:55:28;;;;;;;8.32;2.33;;;6.90;89.40;;;6.55;76.18;100375.75;4969389;28;20051;-90
2021/01/19 02:58:16;;;;;;;11.82;2.28;;;6.80;89.30;;;6.52;75.76;100377.91;4969289;28;20125;-91
2021/01/19 03:01:05;;;;;;;11.75;2.88;;;6.80;88.70;;;6.54;74.70;100354.28;4968027;28;20050;-87
2021/01/19 03:03:36;;;;;;;13.82;2.35;;;6.80;88.50;;;6.52;74.80;100348.19;4969407;28;20046;-90
2021/01/19 03:06:08;;;;;;;8.32;2.30;;;6.80;88.20;;;6.49;75.35;100360.13;4969625;28;20107;-91
2021/01/19 03:08:37;;;;;;;7.70;2.30;;;6.90;88.10;;;6.42;74.26;100342.91;4968008;28;20047;-90
2021/01/19 03:11:05;;;;;;;7.07;2.28;;;6.90;87.80;;;6.47;75.15;100340.53;4969261;28;20050;-90
2021/01/19 03:13:32;;;;;;;7.72;2.05;;;6.90;88.10;;;6.52;74.64;100338.19;4969082;28;20050;-89
2021/01/19 03:16:09;;;;;;;10.95;2.30;;;6.80;87.90;;;6.43;74.24;100326.50;4969452;28;20046;-91
2021/01/19 03:18:38;;;;;;;7.93;2.22;;;6.80;87.00;;;6.47;74.95;100324.31;4969312;28;20058;-90
2021/01/19 03:21:07;;;;;;;10.15;2.33;;;6.80;87.40;;;6.42;74.46;100323.97;4968189;28;20121;-91
2021/01/19 03:23:36;;;;;;;7.85;2.47;;;6.80;87.40;;;6.39;74.87;100311.63;4968285;28;20061;-89
2021/01/19 03:26:04;;;;;;;8.50;2.45;;;6.80;87.20;;;6.31;74.55;100303.47;4969798;28;20061;-91
2021/01/19 03:28:30;;;;;;;10.30;2.03;;;6.80;87.20;;;6.38;75.24;100298.28;4973254;28;20146;-90
2021/01/19 03:30:58;;;;;;;11.30;2.85;;;6.80;87.60;;;6.34;74.55;100297.75;4973273;28;20058;-91
2021/01/19 03:33:25;;;;;;;8.25;2.20;;;6.80;87.40;;;6.42;75.31;100288.84;4971768;28;20046;-88
2021/01/19 03:35:53;;;;;;;9.40;2.28;;;6.80;87.50;;;6.39;74.79;100281.03;4973264;28;20047;-91
2021/01/19 03:38:20;;;;;;;7.97;2.60;;;6.80;87.40;;;6.42;74.03;100286.13;4972877;28;20220;-90
2021/01/19 03:40:48;;;;;;;8.55;2.30;;;6.80;87.20;;;6.32;73.67;100277.28;4972851;28;20050;-90
2021/01/19 03:43:15;;;;;;;8.88;2.60;;;6.80;86.60;;;6.29;73.76;100272.22;4973200;28;20050;-91
2021/01/19 03:45:41;;;;;;;10.00;2.50;;;6.80;86.50;;;6.35;74.46;100258.06;4972976;28;20054;-91
2021/01/19 03:48:11;;;;;;;8.13;3.08;;;6.80;87.20;;;6.35;74.43;100260.75;4973224;28;20051;-91
2021/01/19 03:50:38;;;;;;;7.57;2.40;;;6.80;86.70;;;6.38;73.90;100249.63;4971812;28;20508;-90
2021/01/19 03:53:06;;;;;;;6.57;2.40;;;6.80;86.70;;;6.31;73.31;100243.19;4973286;28;20787;-91
2021/01/19 03:55:33;;;;;;;11.35;2.88;;;6.80;86.10;;;6.25;74.09;100234.72;4972742;28;20138;-90
2021/01/19 03:57:59;;;;;;;7.68;2.53;;;6.80;86.40;;;6.34;73.90;100234.72;4972941;28;20047;-91
2021/01/19 04:00:26;;;;;;;9.25;2.70;;;6.80;86.60;;;6.30;73.51;100220.69;4973636;28;20761;-92
2021/01/19 04:02:53;;;;;;;11.82;2.60;;;6.80;86.60;;;6.30;73.73;100214.44;4992265;28;20047;-91
2021/01/19 04:05:20;;;;;;;15.00;3.17;;;6.80;86.50;;;6.29;73.55;100207.38;4991073;28;20349;-90
2021/01/19 04:07:47;;;;;;;7.38;2.85;;;6.80;86.30;;;6.37;74.24;100207.38;4990486;28;20413;-91
2021/01/19 04:10:15;;;;;;;10.35;3.10;;;6.80;86.80;;;6.37;73.08;100192.00;4991764;28;20130;-91
2021/01/19 04:12:43;;;;;;;10.10;2.80;;;6.80;86.60;;;6.35;74.00;100185.09;4991843;28;20053;-91
2021/01/19 04:15:11;;;;;;;9.73;2.97;;;6.80;86.70;;;6.35;73.50;100176.97;4991842;28;20528;-91
2021/01/19 04:17:38;;;;;;;9.68;3.03;;;6.80;86.70;;;6.36;73.95;100175.94;4987864;28;20089;-92
2021/01/19 04:20:08;;;;;;;12.25;3.10;;;6.90;86.60;;;6.39;73.63;100175.63;4990747;28;20539;-90
2021/01/19 04:22:35;;;;;;;13.07;3.20;;;6.70;86.80;;;6.38;73.93;100169.38;4988320;28;20504;-91
2021/01/19 04:25:04;;;;;;;8.70;2.95;;;6.70;86.80;;;6.37;73.90;100166.84;4991443;28;20443;-90
2021/01/19 04:27:31;;;;;;;14.93;3.05;;;6.70;87.00;;;6.36;73.98;100155.19;4990474;28;20423;-90
2021/01/19 04:29:58;;;;;;;10.48;2.90;;;6.70;86.80;;;6.33;73.97;100160.09;4990721;28;20065;-92
2021/01/19 04:32:25;;;;;;;10.77;3.10;;;6.70;86.80;;;6.37;74.45;100137.94;4992101;28;20385;-90
2021/01/19 04:34:52;;;;;;;7.88;3.00;;;6.70;87.40;;;6.29;74.22;100135.25;4991652;28;20054;-90
2021/01/19 04:37:19;;;;;;;13.13;3.20;;;6.70;87.30;;;6.32;74.34;100142.16;4990972;28;20046;-88
2021/01/19 04:39:46;;;;;;;9.68;3.20;;;6.70;87.30;;;6.34;74.61;100118.53;4991826;28;20055;-91
2021/01/19 04:42:19;;;;;;;10.73;3.30;;;6.70;87.30;;;6.30;74.51;100127.97;4990011;28;20081;-88
2021/01/19 04:44:48;;;;;;;10.88;3.00;;;6.70;87.40;;;6.24;74.26;100114.13;4990002;28;20069;-90
2021/01/19 04:47:16;;;;;;;12.50;2.72;;;6.70;87.40;;;6.15;74.87;100117.84;4991387;28;20050;-89
2021/01/19 04:49:45;;;;;;;16.38;3.38;;;6.70;87.50;;;6.26;75.59;100106.72;4991339;28;20104;-91
2021/01/19 04:52:18;;;;;;;10.23;3.15;;;6.60;87.90;;;6.23;75.41;100098.94;4991074;28;20134;-90
2021/01/19 04:55:04;;;;;;;15.63;3.67;;;6.60;88.00;;;6.29;76.01;100094.72;4991157;28;20053;-91
2021/01/19 04:57:34;;;;;;;9.25;3.13;;;6.60;88.70;;;6.36;76.08;100084.06;4989503;28;20047;-89
2021/01/19 05:00:07;;;;;;;11.98;2.90;;;6.60;89.10;;;6.30;75.06;100063.13;4990724;28;20054;-90
2021/01/19 05:03:20;;;;;;;13.20;3.22;;;6.60;89.10;;;6.30;75.83;100076.63;4989396;28;20111;-89
2021/01/19 05:06:15;;;;;;;14.55;3.40;;;6.50;89.00;;;6.30;76.21;100076.63;4989968;28;20046;-91
2021/01/19 05:09:08;;;;;;;15.75;3.28;;;6.60;89.40;;;6.34;76.42;100061.75;4989269;28;20109;-87
2021/01/19 05:11:51;;;;;;;12.20;3.50;;;6.50;89.70;;;6.28;76.47;100048.94;4990455;28;20050;-88
2021/01/19 05:14:20;;;;;;;12.43;3.72;;;6.50;89.80;;;6.29;76.82;100050.63;4990745;28;20061;-90
2021/01/19 05:16:50;;;;;;;14.75;3.08;;;6.60;89.90;;;6.24;77.05;100043.88;4990697;28;20117;-90
2021/01/19 05:19:22;;;;;;;14.65;4.07;;;6.60;90.00;;;6.31;77.29;100030.53;4990794;28;20057;-89
2021/01/19 05:21:54;;;;;;;13.25;3.58;;;6.50;90.20;;;6.23;76.94;100030.53;4990698;28;20046;-89
2021/01/19 05:24:21;;;;;;;15.75;3.40;;;6.60;90.30;;;6.20;77.43;100022.75;4990770;28;20054;-91
2021/01/19 05:26:48;;;;;;;12.00;3.28;;;6.50;90.20;;;6.16;77.17;100022.25;4989134;28;20054;-90
2021/01/19 05:29:15;;;;;;;14.63;3.40;;;6.50;90.10;;;6.20;77.29;100015.47;4989072;28;20065;-91
2021/01/19 05:31:42;;;;;;;14.27;3.60;;;6.60;90.30;;;6.25;77.66;100004.19;4988874;28;20043;-90
2021/01/19 05:34:12;;;;;;;15.57;4.05;;;6.50;90.20;;;6.31;77.61;99999.97;4990038;28;20130;-88
2021/01/19 05:36:45;;;;;;;16.30;3.58;;;6.60;90.50;;;6.20;77.91;99991.16;4990301;28;20046;-89
2021/01/19 05:39:16;;;;;;;12.35;4.03;;;6.50;90.50;;;6.06;78.14;99994.56;4990267;28;20058;-91
2021/01/19 05:41:45;;;;;;;11.77;3.42;;;6.60;90.50;;;6.16;78.02;99986.28;4989073;28;20073;-90
2021/01/19 05:44:19;;;;;;;16.52;3.45;;;6.60;91.00;;;6.21;78.16;99979.38;4988556;28;20058;-89
2021/01/19 05:46:53;;;;;;;11.15;3.17;;;6.50;91.20;;;6.20;78.41;99966.84;4988695;28;20057;-88
2021/01/19 05:49:24;;;;;;;9.77;3.03;;;6.50;91.20;;;6.10;78.53;99970.75;4987884;28;20045;-89
2021/01/19 05:51:55;;;;;;;14.38;3.80;;;6.50;91.20;;;6.14;78.65;99962.13;4989141;28;20054;-90
2021/01/19 05:54:29;;;;;;;11.70;3.40;;;6.50;91.30;;;6.17;78.21;99961.81;4989475;28;20419;-90
2021/01/19 05:57:08;;;;;;;12.48;3.50;;;6.50;91.30;;;6.21;78.43;99957.75;4988467;28;20046;-90
2021/01/19 05:59:39;;;;;;;10.27;3.20;;;6.50;91.60;;;6.16;78.64;99949.28;4990308;28;20049;-92
2021/01/19 06:02:09;;;;;;;10.70;3.20;;;6.50;91.60;;;6.20;78.98;99947.94;4992412;28;20555;-92
2021/01/19 06:04:43;;;;;;;13.30;3.53;;;6.50;91.70;;;6.25;78.19;99944.75;4996333;28;20046;-91
2021/01/19 06:07:12;;;;;;;9.95;3.50;;;6.50;92.00;;;6.21;78.61;99940.69;4996191;28;20305;-90
2021/01/19 06:09:41;;;;;;;14.68;3.45;;;6.50;92.30;;;6.20;78.99;99937.13;4983689;28;20054;-89
2021/01/19 06:12:08;;;;;;;13.40;3.30;;;6.50;92.30;;;6.24;79.04;99930.41;4984083;28;20516;-90
2021/01/19 06:14:36;;;;;;;10.73;3.97;;;6.50;92.50;;;6.20;78.49;99923.63;4989694;28;20460;-89
2021/01/19 06:17:12;;;;;;;10.57;3.25;;;6.50;92.40;;;6.26;78.88;99912.16;4988320;28;20046;-88
2021/01/19 06:19:41;;;;;;;13.73;2.88;;;6.50;92.40;;;6.18;78.86;99906.75;4988487;28;20049;-88
2021/01/19 06:22:13;;;;;;;11.30;3.28;;;6.50;92.70;;;6.18;79.52;99900.50;4988285;28;20054;-89
2021/01/19 06:24:43;;;;;;;13.63;3.80;;;6.50;92.60;;;6.23;79.17;99888.16;4970394;28;20544;-89
2021/01/19 06:27:12;;;;;;;10.55;3.40;;;6.50;92.70;;;6.28;78.82;99876.00;4968566;28;20130;-89
2021/01/19 06:29:39;;;;;;;12.75;3.92;;;6.50;92.70;;;6.26;79.35;99882.44;4969239;28;20885;-88
2021/01/19 06:32:08;;;;;;;8.85;2.88;;;6.50;92.70;;;6.21;79.25;99870.44;4984063;28;20081;-88
2021/01/19 06:34:38;;;;;;;17.73;4.50;;;6.50;92.70;;;6.16;79.44;99862.84;4989519;28;20408;-88
2021/01/19 06:37:09;;;;;;;10.88;3.75;;;6.50;92.70;;;6.15;79.52;99866.56;4987477;28;20424;-89
2021/01/19 06:39:41;;;;;;;12.52;3.50;;;6.50;92.70;;;6.13;79.95;99857.81;4987772;28;20074;-87
2021/01/19 06:42:15;;;;;;;10.93;3.15;;;6.50;92.70;;;6.15;79.61;99857.59;4987667;28;20120;-88
2021/01/19 06:44:46;;;;;;;10.73;3.30;;;6.60;92.70;;;6.17;79.82;99842.06;4988407;28;20891;-89
2021/01/19 06:47:14;;;;;;;13.02;3.15;;;6.60;92.70;;;6.16;79.90;99840.41;4988282;28;20057;-88
2021/01/19 06:49:42;;;;;;;10.40;3.42;;;6.60;92.70;;;6.16;79.77;99830.44;4987880;28;20077;-88
2021/01/19 06:52:13;;;;;;;12.93;3.63;;;6.60;92.70;;;6.17;79.96;99826.72;4989385;28;20120;-87
2021/01/19 06:55:22;;;;;;;16.10;3.92;;;6.60;92.70;;;6.29;79.96;99824.47;4988687;28;20085;-90
2021/01/19 06:58:25;;;;;;;12.63;3.15;;;6.60;93.10;;;6.23;80.48;99817.91;4980487;28;20050;-88
2021/01/19 07:01:01;;;;;;;12.38;3.55;;;6.60;93.10;;;6.30;79.90;99812.63;4988846;28;20113;-87
2021/01/19 07:03:28;;;;;;;10.10;3.72;;;6.50;93.50;;;6.30;79.81;99792.88;4989413;28;20467;-88
2021/01/19 07:06:03;;;;;;;10.23;2.65;;;6.60;93.40;;;6.21;80.28;99801.03;4988170;28;20682;-89
2021/01/19 07:09:23;;;;;;;7.70;3.35;;;6.60;93.50;;;6.31;80.27;99800.00;4989446;28;20065;-89
2021/01/19 07:12:07;;;;;;;10.57;3.40;;;6.60;93.50;;;6.24;80.22;99798.00;4974133;28;20074;-87
2021/01/19 07:14:43;;;;;;;9.68;3.17;;;6.60;93.60;;;6.21;80.69;99784.00;4969284;28;20057;-88
2021/01/19 07:17:18;;;;;;;13.15;3.40;;;6.60;93.90;;;6.20;80.90;99774.19;4969739;28;20047;-88
2021/01/19 07:19:50;;;;;;;10.70;3.47;;;6.60;93.80;;;6.20;81.31;99772.31;4969801;28;20583;-88
2021/01/19 07:22:54;;;;;;;7.97;2.83;;;6.60;93.90;;;6.32;81.30;99766.53;4968443;28;20081;-88
2021/01/19 07:25:24;;;;;;;12.20;3.25;;;6.60;94.20;;;6.35;81.12;99766.19;4969711;28;20053;-87
2021/01/19 07:27:53;;;;;;;7.97;3.50;;;6.60;94.40;;;6.32;80.81;99756.59;4969027;28;20627;-87
2021/01/19 07:30:22;;;;;;;7.95;2.83;;;6.60;94.40;;;6.34;80.69;99750.97;4968357;28;20050;-87
2021/01/19 07:32:51;;;;;;;10.75;3.10;;;6.60;94.30;;;6.35;80.82;99741.88;4969617;28;20505;-87
2021/01/19 07:35:28;;;;;;;8.13;2.90;;;6.60;94.40;;;6.41;80.89;99747.41;4967984;28;20061;-86
2021/01/19 07:37:59;;;;;;;12.52;3.67;;;6.60;94.60;;;6.41;80.73;99731.19;4967659;28;20058;-87
2021/01/19 07:40:27;;;;;;;8.27;3.20;;;6.60;94.60;;;6.36;81.03;99732.72;4967801;28;20050;-86
2021/01/19 07:42:55;;;;;;;9.40;3.60;;;6.60;94.70;;;6.34;81.18;99723.97;4968851;28;20760;-88
2021/01/19 07:45:31;;;;;;;8.45;3.20;;;6.70;94.70;;;6.39;81.08;99727.81;4969440;28;20046;-87
2021/01/19 07:48:07;;;;;;;6.60;3.17;;;6.70;94.70;;;6.43;81.13;99720.19;4972144;28;20046;-86
2021/01/19 07:50:43;;;;;;;7.43;3.15;;;6.60;94.70;;;6.42;80.75;99726.66;4987271;28;20093;-87
2021/01/19 07:53:10;;;;;;;8.57;2.80;;;6.60;94.80;;;6.34;81.52;99724.81;4988498;28;20050;-88
2021/01/19 07:55:45;;;;;;;9.27;3.17;;;6.70;95.00;;;6.32;81.79;99709.78;4987108;28;20050;-87
2021/01/19 07:58:18;;;;;;;5.70;2.88;;;6.60;94.80;;;6.40;81.32;99710.59;4971447;28;20043;-87
2021/01/19 08:00:48;;;;;;;6.32;2.85;;;6.70;95.00;;;6.30;81.82;99692.91;4967527;28;20043;-87
2021/01/19 08:03:15;;;;;;;6.45;2.40;;;6.70;95.20;;;6.32;81.83;99693.56;4968934;28;20552;-88
2021/01/19 08:05:42;;;;;;;7.15;2.50;;;6.70;95.20;;;6.28;82.66;99697.66;4967325;28;20050;-88
2021/01/19 08:08:16;;;;;;;6.43;2.47;;;6.70;95.30;;;6.20;82.55;99688.56;4968684;28;20154;-88
2021/01/19 08:10:55;;;;;;;4.45;2.10;;;6.70;95.40;;;6.20;83.13;99685.03;4971882;28;20100;-88
2021/01/19 08:13:24;;;;;;;5.45;2.30;;;6.80;95.30;;;6.28;82.78;99687.69;4992297;28;20106;-86
2021/01/19 08:16:07;;;;;;;5.45;2.30;;;6.70;95.20;;;6.30;82.88;99680.22;4991915;28;20076;-89
2021/01/19 08:19:25;;;;;;;4.63;1.95;;;6.80;95.40;;;6.31;83.29;99678.41;4991359;28;20054;-90
2021/01/19 08:22:29;;;;;;;6.68;2.17;;;6.80;95.50;;;6.33;82.98;99660.16;4947611;28;20436;-90
2021/01/19 08:25:01;;;;;;;6.80;2.50;;;6.80;95.60;;;6.39;82.98;99668.34;4992395;28;20527;-91
2021/01/19 08:27:29;;;;;;;4.90;2.05;;;6.80;95.70;;;6.37;83.13;99661.47;4990617;28;20050;-89
2021/01/19 08:29:57;;;;;;;5.97;2.47;;;6.80;95.60;;;6.41;83.04;99654.69;4990980;28;20046;-90
2021/01/19 08:32:33;;;;;;;4.68;2.17;;;6.90;95.80;;;6.41;83.18;99649.28;4991218;28;20046;-90
2021/01/19 08:35:08;;;;;;;6.88;2.08;;;6.90;95.90;;;6.45;83.06;99651.47;4990222;28;20092;-89
2021/01/19 08:37:37;;;;;;;5.43;2.10;;;6.90;95.80;;;6.48;83.20;99650.25;4992707;28;20065;-89
2021/01/19 08:40:13;;;;;;;5.90;2.45;;;6.90;96.00;;;6.51;82.85;99652.59;4992379;28;20046;-88
2021/01/19 08:42:41;;;;;;;4.05;2.10;;;6.90;95.90;;;6.52;83.22;99640.75;4991237;28;20432;-89
2021/01/19 08:45:11;;;;;;;6.07;2.50;;;6.90;96.20;;;6.49;83.12;99638.41;4991594;28;20050;-89
2021/01/19 08:47:46;;;;;;;5.72;2.10;;;6.90;96.20;;;6.45;83.59;99637.06;4991762;28;20046;-90
2021/01/19 08:50:17;;;;;;;6.35;2.67;;;6.90;96.00;;;6.50;83.63;99642.78;4990510;28;20466;-89
2021/01/19 08:52:44;;;;;;;8.00;2.30;;;6.90;96.00;;;6.46;83.48;99636.06;4990035;28;20153;-89
2021/01/19 08:55:17;;;;;;;6.72;2.30;;;6.90;96.00;;;6.50;83.46;99625.75;4991278;28;20149;-89
2021/01/19 08:57:50;;;;;;;5.75;2.60;;;6.90;96.00;;;6.51;82.93;99633.69;4990347;28;20148;-88
2021/01/19 09:00:29;;;;;;;5.80;2.70;;;7.00;95.90;;;6.56;83.14;99636.66;4990908;28;20070;-89
2021/01/19 09:02:58;;;;;;;5.80;2.47;;;7.00;95.70;;;6.62;82.76;99625.13;4991017;28;20050;-89
2021/01/19 09:05:30;;;;;;;5.63;2.10;;;6.90;96.20;;;6.67;82.71;99621.88;4990695;28;20046;-90
2021/01/19 09:07:58;;;;;;;5.90;2.30;;;6.90;96.30;;;6.64;82.27;99617.69;4990704;28;20046;-89
2021/01/19 09:10:28;;;;;;;7.78;3.00;;;6.90;96.40;;;6.57;83.16;99605.09;4990728;28;20042;-88
2021/01/19 09:12:57;;;;;;;7.25;3.08;;;7.00;96.30;;;6.58;83.35;99613.00;4989439;28;20148;-89
2021/01/19 09:15:39;;;;;;;6.43;2.80;;;7.00;96.60;;;6.62;83.63;99603.50;4989776;28;20696;-90
2021/01/19 09:18:11;;;;;;;5.30;2.60;;;7.00;96.60;;;6.56;84.03;99597.97;4989485;28;20050;-89
2021/01/19 09:20:38;;;;;;;5.97;2.70;;;7.00;96.60;;;6.51;84.00;99590.44;4990839;28;20049;-90
2021/01/19 09:23:10;;;;;;;5.78;2.50;;;7.00;96.60;;;6.59;83.70;99584.94;4990432;28;20053;-88
2021/01/19 09:25:37;;;;;;;5.95;2.42;;;7.00;96.80;;;6.57;84.18;99578.88;4989331;28;20101;-89
2021/01/19 09:28:12;;;;;;;8.57;3.00;;;7.00;96.70;;;6.48;84.65;99590.78;4989280;28;20364;-89
2021/01/19 09:30:41;;;;;;;9.57;3.10;;;7.10;96.80;;;6.52;84.25;99578.59;4989556;28;20093;-89
2021/01/19 09:33:10;;;;;;;9.85;3.50;;;7.10;96.70;;;6.53;84.85;99577.56;4990575;28;20057;-89
2021/01/19 09:35:39;;;;;;;7.72;3.08;;;7.10;96.70;;;6.65;84.18;99576.09;4990454;28;20046;-86
2021/01/19 09:38:14;;;;;;;9.35;3.33;;;7.10;96.70;;;6.67;84.04;99578.63;4990515;28;20039;-89
2021/01/19 09:40:41;;;;;;;12.15;4.28;;;7.10;96.90;;;6.65;84.44;99572.56;4988172;28;20050;-90
2021/01/19 09:43:15;;;;;;;10.18;3.67;;;7.20;96.70;;;6.59;84.90;99592.22;4989265;28;20531;-89
2021/01/19 09:45:44;;;;;;;4.88;1.95;;;7.10;97.00;;;6.51;85.38;99562.53;4989414;28;20622;-89
2021/01/19 09:48:26;;;;;;;4.68;1.80;;;7.10;97.20;;;6.57;84.87;99572.66;4989989;28;20053;-89
2021/01/19 09:50:58;;;;;;;7.10;1.83;;;7.20;96.90;;;6.62;85.14;99559.41;4989172;28;20051;-88
2021/01/19 09:53:32;;;;;;;4.00;1.77;;;7.20;97.20;;;6.64;85.13;99563.63;4991005;28;20125;-87
2021/01/19 09:56:16;;;;;;;5.88;1.67;;;7.20;97.30;;;6.65;85.60;99565.28;4989599;28;20077;-88
2021/01/19 09:58:43;;;;;;;4.13;1.52;;;7.20;97.20;;;6.69;85.35;99565.75;5006182;28;20054;-90
2021/01/19 10:01:26;;;;;;;4.00;1.15;;;7.20;97.30;;;6.73;85.18;99568.94;4990983;28;20049;-89
2021/01/19 10:03:57;;;;;;;4.35;1.42;;;7.30;97.20;;;6.76;84.76;99566.72;4989843;28;20137;-89
2021/01/19 10:06:25;;;;;;;4.65;1.40;;;7.30;97.60;;;6.79;85.14;99551.97;4989433;28;20054;-87
2021/01/19 10:08:53;;;;;;;4.18;1.48;;;7.30;97.50;;;6.76;85.07;99555.03;4990513;28;20137;-89
2021/01/19 10:11:32;;;;;;;4.13;1.33;;;7.30;97.40;;;6.82;85.71;99557.03;4989793;28;20561;-88
2021/01/19 10:14:20;;;;;;;5.23;1.30;;;7.40;97.60;;;6.80;85.68;99569.91;4989727;28;20062;-89
2021/01/19 10:16:49;;;;;;;3.10;1.17;;;7.40;97.70;;;6.80;86.08;99556.38;4988433;28;20305;-89
2021/01/19 10:19:20;;;;;;;4.55;1.30;;;7.40;97.60;;;6.76;85.69;99544.22;4989173;28;20038;-89
2021/01/19 10:21:53;;;;;;;4.38;1.20;;;7.40;97.80;;;6.82;86.10;99559.75;4989470;28;20185;-88
2021/01/19 10:24:20;;;;;;;3.80;1.30;;;7.40;97.90;;;6.85;86.14;99559.34;4989203;28;20496;-89
2021/01/19 10:27:00;;;;;;;6.07;1.17;;;7.40;97.70;;;6.84;86.19;99546.88;4989052;28;20574;-89
2021/01/19 10:29:30;;;;;;;6.97;1.33;;;7.50;97.80;;;6.85;86.59;99562.91;4988807;28;20124;-88
2021/01/19 10:32:02;;;;;;;4.30;1.38;;;7.50;97.80;;;6.88;86.04;99559.00;4989287;28;20524;-89
2021/01/19 10:34:34;;;;;;;2.92;1.17;;;7.50;98.10;;;6.88;85.88;99537.34;4988916;28;20802;-88
2021/01/19 10:37:03;;;;;;;2.60;1.10;;;7.50;98.00;;;6.92;86.13;99551.34;4988444;28;20130;-89
2021/01/19 10:39:31;;;;;;;2.72;1.20;;;7.50;97.80;;;6.97;85.76;99546.25;4989048;28;20046;-88
2021/01/19 10:41:59;;;;;;;3.53;1.13;;;7.50;97.70;;;6.93;86.57;99540.34;4989603;28;20046;-89
2021/01/19 10:44:27;;;;;;;3.70;1.13;;;7.60;98.00;;;6.98;85.94;99548.72;4988130;28;20045;-89
2021/01/19 10:47:02;;;;;;;4.03;1.58;;;7.60;97.80;;;7.01;86.18;99552.97;4988182;28;20733;-90